sensor_id;sensor_type;location;lat;lon;timestamp;temperature;humidity
31379;DHT22;61664;48.112;11.662;2023-09-19T00:00:38;18.60;92.80
31379;DHT22;61664;48.112;11.662;2023-09-19T00:03:07;18.70;92.90
31379;DHT22;61664;48.112;11.662;2023-09-19T00:05:36;18.70;92.80
31379;DHT22;61664;48.112;11.662;2023-09-19T00:08:12;18.70;92.90
31379;DHT22;61664;48.112;11.662;2023-09-19T00:10:42;18.70;92.90
31379;DHT22;61664;48.112;11.662;2023-09-19T00:13:10;18.70;92.90
31379;DHT22;61664;48.112;11.662;2023-09-19T00:15:47;18.80;92.90
31379;DHT22;61664;48.112;11.662;2023-09-19T00:18:19;18.80;92.40
31379;DHT22;61664;48.112;11.662;2023-09-19T00:20:58;18.80;92.70
31379;DHT22;61664;48.112;11.662;2023-09-19T00:23:25;18.80;92.30
31379;DHT22;61664;48.112;11.662;2023-09-19T00:25:52;18.90;92.10
31379;DHT22;61664;48.112;11.662;2023-09-19T00:28:25;18.90;92.80
31379;DHT22;61664;48.112;11.662;2023-09-19T00:30:53;18.90;92.70
31379;DHT22;61664;48.112;11.662;2023-09-19T00:33:22;18.90;92.80
31379;DHT22;61664;48.112;11.662;2023-09-19T00:35:50;18.90;92.80
31379;DHT22;61664;48.112;11.662;2023-09-19T00:38:19;18.90;92.70
31379;DHT22;61664;48.112;11.662;2023-09-19T00:40:54;18.90;92.60
31379;DHT22;61664;48.112;11.662;2023-09-19T00:43:26;19.00;92.50
31379;DHT22;61664;48.112;11.662;2023-09-19T00:45:55;19.00;92.60
31379;DHT22;61664;48.112;11.662;2023-09-19T00:48:24;19.00;92.50
31379;DHT22;61664;48.112;11.662;2023-09-19T00:50:54;19.00;92.40
31379;DHT22;61664;48.112;11.662;2023-09-19T00:53:24;19.00;91.80
31379;DHT22;61664;48.112;11.662;2023-09-19T00:55:52;19.00;92.30
31379;DHT22;61664;48.112;11.662;2023-09-19T00:58:19;19.00;92.40
31379;DHT22;61664;48.112;11.662;2023-09-19T01:00:48;19.00;92.30
31379;DHT22;61664;48.112;11.662;2023-09-19T01:03:17;19.00;92.10
31379;DHT22;61664;48.112;11.662;2023-09-19T01:05:45;19.10;92.00
31379;DHT22;61664;48.112;11.662;2023-09-19T01:08:12;19.00;92.10
31379;DHT22;61664;48.112;11.662;2023-09-19T01:10:50;19.10;92.10
31379;DHT22;61664;48.112;11.662;2023-09-19T01:14:02;19.10;90.90
31379;DHT22;61664;48.112;11.662;2023-09-19T01:16:58;19.10;90.80
31379;DHT22;61664;48.112;11.662;2023-09-19T01:23:00;19.10;90.00
31379;DHT22;61664;48.112;11.662;2023-09-19T01:28:53;19.10;89.40
31379;DHT22;61664;48.112;11.662;2023-09-19T01:31:31;19.10;90.10
31379;DHT22;61664;48.112;11.662;2023-09-19T01:34:03;19.00;90.70
31379;DHT22;61664;48.112;11.662;2023-09-19T01:36:36;19.10;91.20
31379;DHT22;61664;48.112;11.662;2023-09-19T01:39:09;19.10;91.10
31379;DHT22;61664;48.112;11.662;2023-09-19T01:44:40;19.10;88.80
31379;DHT22;61664;48.112;11.662;2023-09-19T01:47:33;19.10;91.00
31379;DHT22;61664;48.112;11.662;2023-09-19T01:52:57;19.20;88.80
31379;DHT22;61664;48.112;11.662;2023-09-19T01:55:36;19.20;89.70
31379;DHT22;61664;48.112;11.662;2023-09-19T01:58:35;19.10;90.00
31379;DHT22;61664;48.112;11.662;2023-09-19T02:01:08;19.10;87.10
31379;DHT22;61664;48.112;11.662;2023-09-19T02:03:40;19.20;90.40
31379;DHT22;61664;48.112;11.662;2023-09-19T02:06:08;19.10;90.70
31379;DHT22;61664;48.112;11.662;2023-09-19T02:08:41;19.20;90.60
31379;DHT22;61664;48.112;11.662;2023-09-19T02:11:08;19.20;90.60
31379;DHT22;61664;48.112;11.662;2023-09-19T02:13:34;19.20;90.50
31379;DHT22;61664;48.112;11.662;2023-09-19T02:16:02;19.20;90.50
31379;DHT22;61664;48.112;11.662;2023-09-19T02:18:31;19.20;90.40
31379;DHT22;61664;48.112;11.662;2023-09-19T02:20:57;19.20;90.40
31379;DHT22;61664;48.112;11.662;2023-09-19T02:23:25;19.20;90.40
31379;DHT22;61664;48.112;11.662;2023-09-19T02:25:53;19.20;90.40
31379;DHT22;61664;48.112;11.662;2023-09-19T02:28:21;19.30;90.20
31379;DHT22;61664;48.112;11.662;2023-09-19T02:30:49;19.20;90.00
31379;DHT22;61664;48.112;11.662;2023-09-19T02:33:16;19.20;90.00
31379;DHT22;61664;48.112;11.662;2023-09-19T02:35:44;19.30;90.00
31379;DHT22;61664;48.112;11.662;2023-09-19T02:38:11;19.20;89.80
31379;DHT22;61664;48.112;11.662;2023-09-19T02:40:38;19.20;89.70
31379;DHT22;61664;48.112;11.662;2023-09-19T02:43:06;19.20;89.60
31379;DHT22;61664;48.112;11.662;2023-09-19T02:45:35;19.20;89.60
31379;DHT22;61664;48.112;11.662;2023-09-19T02:48:02;19.20;89.60
31379;DHT22;61664;48.112;11.662;2023-09-19T02:50:29;19.20;89.60
31379;DHT22;61664;48.112;11.662;2023-09-19T02:52:56;19.20;89.60
31379;DHT22;61664;48.112;11.662;2023-09-19T02:55:23;19.20;89.60
31379;DHT22;61664;48.112;11.662;2023-09-19T02:57:54;19.20;89.50
31379;DHT22;61664;48.112;11.662;2023-09-19T03:00:22;19.20;87.50
31379;DHT22;61664;48.112;11.662;2023-09-19T03:02:52;19.20;89.10
31379;DHT22;61664;48.112;11.662;2023-09-19T03:05:23;19.20;88.90
31379;DHT22;61664;48.112;11.662;2023-09-19T03:07:51;19.20;88.60
31379;DHT22;61664;48.112;11.662;2023-09-19T03:10:19;19.20;88.90
31379;DHT22;61664;48.112;11.662;2023-09-19T03:12:47;19.20;88.80
31379;DHT22;61664;48.112;11.662;2023-09-19T03:15:15;19.20;88.90
31379;DHT22;61664;48.112;11.662;2023-09-19T03:17:44;19.20;88.80
31379;DHT22;61664;48.112;11.662;2023-09-19T03:20:12;19.10;88.70
31379;DHT22;61664;48.112;11.662;2023-09-19T03:22:44;19.20;88.70
31379;DHT22;61664;48.112;11.662;2023-09-19T03:25:12;19.20;88.60
31379;DHT22;61664;48.112;11.662;2023-09-19T03:27:41;19.10;88.60
31379;DHT22;61664;48.112;11.662;2023-09-19T03:30:08;19.10;88.60
31379;DHT22;61664;48.112;11.662;2023-09-19T03:32:36;19.10;88.70
31379;DHT22;61664;48.112;11.662;2023-09-19T03:35:04;19.10;88.70
31379;DHT22;61664;48.112;11.662;2023-09-19T03:37:34;19.10;88.70
31379;DHT22;61664;48.112;11.662;2023-09-19T03:40:01;19.10;89.00
31379;DHT22;61664;48.112;11.662;2023-09-19T03:42:31;19.10;88.90
31379;DHT22;61664;48.112;11.662;2023-09-19T03:44:58;19.20;86.20
31379;DHT22;61664;48.112;11.662;2023-09-19T03:47:31;19.10;89.30
31379;DHT22;61664;48.112;11.662;2023-09-19T03:49:57;19.10;89.10
31379;DHT22;61664;48.112;11.662;2023-09-19T03:52:24;19.10;89.30
31379;DHT22;61664;48.112;11.662;2023-09-19T03:54:51;19.10;89.40
31379;DHT22;61664;48.112;11.662;2023-09-19T03:57:18;19.10;89.50
31379;DHT22;61664;48.112;11.662;2023-09-19T03:59:47;19.10;89.60
31379;DHT22;61664;48.112;11.662;2023-09-19T04:02:14;19.10;89.60
31379;DHT22;61664;48.112;11.662;2023-09-19T04:04:52;19.10;89.60
31379;DHT22;61664;48.112;11.662;2023-09-19T04:07:19;19.10;89.70
31379;DHT22;61664;48.112;11.662;2023-09-19T04:09:49;19.20;90.00
31379;DHT22;61664;48.112;11.662;2023-09-19T04:12:16;19.10;90.00
31379;DHT22;61664;48.112;11.662;2023-09-19T04:14:45;19.20;90.10
31379;DHT22;61664;48.112;11.662;2023-09-19T04:17:12;19.20;90.00
31379;DHT22;61664;48.112;11.662;2023-09-19T04:19:39;19.20;90.00
31379;DHT22;61664;48.112;11.662;2023-09-19T04:22:08;19.20;90.00
31379;DHT22;61664;48.112;11.662;2023-09-19T04:24:35;19.20;90.00
31379;DHT22;61664;48.112;11.662;2023-09-19T04:27:05;19.20;89.90
31379;DHT22;61664;48.112;11.662;2023-09-19T04:29:32;19.20;89.70
31379;DHT22;61664;48.112;11.662;2023-09-19T04:32:00;19.20;89.70
31379;DHT22;61664;48.112;11.662;2023-09-19T04:34:26;19.20;90.00
31379;DHT22;61664;48.112;11.662;2023-09-19T04:36:54;19.30;90.00
31379;DHT22;61664;48.112;11.662;2023-09-19T04:39:23;19.30;89.90
31379;DHT22;61664;48.112;11.662;2023-09-19T04:41:52;19.30;89.80
31379;DHT22;61664;48.112;11.662;2023-09-19T04:44:19;19.30;89.50
31379;DHT22;61664;48.112;11.662;2023-09-19T04:46:47;19.30;89.40
31379;DHT22;61664;48.112;11.662;2023-09-19T04:49:14;19.30;89.20
31379;DHT22;61664;48.112;11.662;2023-09-19T04:51:41;19.30;89.50
31379;DHT22;61664;48.112;11.662;2023-09-19T04:54:09;19.40;88.90
31379;DHT22;61664;48.112;11.662;2023-09-19T04:56:36;19.30;88.70
31379;DHT22;61664;48.112;11.662;2023-09-19T04:59:06;19.40;88.70
31379;DHT22;61664;48.112;11.662;2023-09-19T05:01:33;19.40;85.50
31379;DHT22;61664;48.112;11.662;2023-09-19T05:04:00;19.30;88.80
31379;DHT22;61664;48.112;11.662;2023-09-19T05:06:27;19.40;88.80
31379;DHT22;61664;48.112;11.662;2023-09-19T05:08:54;19.30;88.80
31379;DHT22;61664;48.112;11.662;2023-09-19T05:11:22;19.40;88.90
31379;DHT22;61664;48.112;11.662;2023-09-19T05:13:49;19.30;88.80
31379;DHT22;61664;48.112;11.662;2023-09-19T05:16:17;19.40;89.00
31379;DHT22;61664;48.112;11.662;2023-09-19T05:18:44;19.40;89.00
31379;DHT22;61664;48.112;11.662;2023-09-19T05:21:11;19.40;89.00
31379;DHT22;61664;48.112;11.662;2023-09-19T05:23:38;19.40;89.10
31379;DHT22;61664;48.112;11.662;2023-09-19T05:26:08;19.50;89.00
31379;DHT22;61664;48.112;11.662;2023-09-19T05:28:37;19.50;89.00
31379;DHT22;61664;48.112;11.662;2023-09-19T05:31:04;19.50;88.60
31379;DHT22;61664;48.112;11.662;2023-09-19T05:33:31;19.50;88.30
31379;DHT22;61664;48.112;11.662;2023-09-19T05:36:00;19.50;88.40
31379;DHT22;61664;48.112;11.662;2023-09-19T05:38:27;19.50;88.60
31379;DHT22;61664;48.112;11.662;2023-09-19T05:40:54;19.50;88.10
31379;DHT22;61664;48.112;11.662;2023-09-19T05:43:21;19.60;87.90
31379;DHT22;61664;48.112;11.662;2023-09-19T05:45:48;19.60;87.70
31379;DHT22;61664;48.112;11.662;2023-09-19T05:48:19;19.60;87.40
31379;DHT22;61664;48.112;11.662;2023-09-19T05:50:48;19.60;87.40
31379;DHT22;61664;48.112;11.662;2023-09-19T05:53:18;19.60;86.80
31379;DHT22;61664;48.112;11.662;2023-09-19T05:55:45;19.60;86.70
31379;DHT22;61664;48.112;11.662;2023-09-19T05:58:12;19.60;86.30
31379;DHT22;61664;48.112;11.662;2023-09-19T06:00:40;19.60;86.50
31379;DHT22;61664;48.112;11.662;2023-09-19T06:03:09;19.60;86.00
31379;DHT22;61664;48.112;11.662;2023-09-19T06:05:38;19.60;86.00
31379;DHT22;61664;48.112;11.662;2023-09-19T06:08:26;19.60;86.20
31379;DHT22;61664;48.112;11.662;2023-09-19T06:10:52;19.50;86.40
31379;DHT22;61664;48.112;11.662;2023-09-19T06:13:19;19.60;86.80
31379;DHT22;61664;48.112;11.662;2023-09-19T06:15:46;19.60;87.20
31379;DHT22;61664;48.112;11.662;2023-09-19T06:18:13;19.70;87.50
31379;DHT22;61664;48.112;11.662;2023-09-19T06:20:43;19.70;87.40
31379;DHT22;61664;48.112;11.662;2023-09-19T06:23:12;19.80;87.40
31379;DHT22;61664;48.112;11.662;2023-09-19T06:25:39;19.80;87.00
31379;DHT22;61664;48.112;11.662;2023-09-19T06:28:07;19.90;86.90
31379;DHT22;61664;48.112;11.662;2023-09-19T06:30:35;19.90;86.90
31379;DHT22;61664;48.112;11.662;2023-09-19T06:33:02;20.00;86.90
31379;DHT22;61664;48.112;11.662;2023-09-19T06:35:34;20.10;86.60
31379;DHT22;61664;48.112;11.662;2023-09-19T06:38:04;20.10;85.40
31379;DHT22;61664;48.112;11.662;2023-09-19T06:40:34;20.20;85.10
31379;DHT22;61664;48.112;11.662;2023-09-19T06:43:01;20.40;85.60
31379;DHT22;61664;48.112;11.662;2023-09-19T06:45:31;20.40;85.60
31379;DHT22;61664;48.112;11.662;2023-09-19T06:47:59;20.50;85.20
31379;DHT22;61664;48.112;11.662;2023-09-19T06:50:27;20.60;84.50
31379;DHT22;61664;48.112;11.662;2023-09-19T06:52:55;20.60;84.10
31379;DHT22;61664;48.112;11.662;2023-09-19T06:55:25;20.60;83.40
31379;DHT22;61664;48.112;11.662;2023-09-19T06:57:55;20.70;83.00
31379;DHT22;61664;48.112;11.662;2023-09-19T07:00:22;20.70;82.60
31379;DHT22;61664;48.112;11.662;2023-09-19T07:03:01;20.70;82.70
31379;DHT22;61664;48.112;11.662;2023-09-19T07:05:31;20.70;77.90
31379;DHT22;61664;48.112;11.662;2023-09-19T07:08:01;20.70;81.30
31379;DHT22;61664;48.112;11.662;2023-09-19T07:10:29;20.70;80.90
31379;DHT22;61664;48.112;11.662;2023-09-19T07:13:01;20.70;82.50
31379;DHT22;61664;48.112;11.662;2023-09-19T07:15:36;20.70;82.80
31379;DHT22;61664;48.112;11.662;2023-09-19T07:18:06;20.80;82.60
31379;DHT22;61664;48.112;11.662;2023-09-19T07:20:37;20.90;82.00
31379;DHT22;61664;48.112;11.662;2023-09-19T07:23:05;20.90;81.70
31379;DHT22;61664;48.112;11.662;2023-09-19T07:25:32;21.00;81.10
31379;DHT22;61664;48.112;11.662;2023-09-19T07:27:59;21.00;81.10
31379;DHT22;61664;48.112;11.662;2023-09-19T07:30:27;21.00;80.70
31379;DHT22;61664;48.112;11.662;2023-09-19T07:32:56;21.00;80.40
31379;DHT22;61664;48.112;11.662;2023-09-19T07:35:23;21.10;80.30
31379;DHT22;61664;48.112;11.662;2023-09-19T07:37:50;21.10;80.10
31379;DHT22;61664;48.112;11.662;2023-09-19T07:40:19;21.10;79.50
31379;DHT22;61664;48.112;11.662;2023-09-19T07:42:47;21.10;79.40
31379;DHT22;61664;48.112;11.662;2023-09-19T07:45:14;21.20;80.50
31379;DHT22;61664;48.112;11.662;2023-09-19T07:47:45;21.60;79.50
31379;DHT22;61664;48.112;11.662;2023-09-19T07:50:17;22.00;79.00
31379;DHT22;61664;48.112;11.662;2023-09-19T07:52:48;22.30;77.60
31379;DHT22;61664;48.112;11.662;2023-09-19T07:55:20;22.60;76.70
31379;DHT22;61664;48.112;11.662;2023-09-19T07:57:50;22.70;76.00
31379;DHT22;61664;48.112;11.662;2023-09-19T08:00:18;22.80;75.70
31379;DHT22;61664;48.112;11.662;2023-09-19T08:02:46;23.00;74.50
31379;DHT22;61664;48.112;11.662;2023-09-19T08:05:24;23.10;73.40
31379;DHT22;61664;48.112;11.662;2023-09-19T08:07:51;23.10;73.10
31379;DHT22;61664;48.112;11.662;2023-09-19T08:10:23;23.10;73.20
31379;DHT22;61664;48.112;11.662;2023-09-19T08:12:54;23.10;74.10
31379;DHT22;61664;48.112;11.662;2023-09-19T08:15:24;23.20;73.10
31379;DHT22;61664;48.112;11.662;2023-09-19T08:17:51;23.20;73.10
31379;DHT22;61664;48.112;11.662;2023-09-19T08:20:19;23.30;73.00
31379;DHT22;61664;48.112;11.662;2023-09-19T08:22:51;23.20;72.50
31379;DHT22;61664;48.112;11.662;2023-09-19T08:25:22;23.20;71.10
31379;DHT22;61664;48.112;11.662;2023-09-19T08:27:50;23.20;72.40
31379;DHT22;61664;48.112;11.662;2023-09-19T08:30:19;23.20;72.50
31379;DHT22;61664;48.112;11.662;2023-09-19T08:32:51;23.40;72.60
31379;DHT22;61664;48.112;11.662;2023-09-19T08:35:23;23.60;72.80
31379;DHT22;61664;48.112;11.662;2023-09-19T08:37:51;23.80;72.20
31379;DHT22;61664;48.112;11.662;2023-09-19T08:40:18;24.00;71.40
31379;DHT22;61664;48.112;11.662;2023-09-19T08:42:55;24.20;70.50
31379;DHT22;61664;48.112;11.662;2023-09-19T08:45:24;24.30;67.70
31379;DHT22;61664;48.112;11.662;2023-09-19T08:50:56;24.90;67.90
31379;DHT22;61664;48.112;11.662;2023-09-19T08:53:42;25.20;67.00
31379;DHT22;61664;48.112;11.662;2023-09-19T08:56:15;25.50;64.80
31379;DHT22;61664;48.112;11.662;2023-09-19T08:58:48;25.80;65.60
31379;DHT22;61664;48.112;11.662;2023-09-19T09:01:21;26.10;64.70
31379;DHT22;61664;48.112;11.662;2023-09-19T09:03:53;26.10;64.70
31379;DHT22;61664;48.112;11.662;2023-09-19T09:06:22;25.90;65.20
31379;DHT22;61664;48.112;11.662;2023-09-19T09:08:51;25.80;64.60
31379;DHT22;61664;48.112;11.662;2023-09-19T09:11:21;25.60;64.10
31379;DHT22;61664;48.112;11.662;2023-09-19T09:13:51;25.40;64.70
31379;DHT22;61664;48.112;11.662;2023-09-19T09:16:19;25.20;65.40
31379;DHT22;61664;48.112;11.662;2023-09-19T09:18:47;25.00;65.60
31379;DHT22;61664;48.112;11.662;2023-09-19T09:21:21;24.80;66.00
31379;DHT22;61664;48.112;11.662;2023-09-19T09:23:49;24.70;66.20
31379;DHT22;61664;48.112;11.662;2023-09-19T09:26:41;24.50;65.70
31379;DHT22;61664;48.112;11.662;2023-09-19T09:29:13;24.30;64.50
31379;DHT22;61664;48.112;11.662;2023-09-19T09:31:47;24.20;65.70
31379;DHT22;61664;48.112;11.662;2023-09-19T09:34:16;24.00;66.10
31379;DHT22;61664;48.112;11.662;2023-09-19T09:36:48;23.80;66.40
31379;DHT22;61664;48.112;11.662;2023-09-19T09:39:30;23.70;65.80
31379;DHT22;61664;48.112;11.662;2023-09-19T09:41:58;24.00;65.50
31379;DHT22;61664;48.112;11.662;2023-09-19T09:44:26;24.30;69.00
31379;DHT22;61664;48.112;11.662;2023-09-19T09:46:58;24.80;67.80
31379;DHT22;61664;48.112;11.662;2023-09-19T09:49:47;25.30;67.00
31379;DHT22;61664;48.112;11.662;2023-09-19T09:52:21;25.80;65.50
31379;DHT22;61664;48.112;11.662;2023-09-19T09:55:01;26.00;63.60
31379;DHT22;61664;48.112;11.662;2023-09-19T09:57:33;26.00;61.90
31379;DHT22;61664;48.112;11.662;2023-09-19T10:00:01;25.80;61.90
31379;DHT22;61664;48.112;11.662;2023-09-19T10:02:38;25.70;62.60
31379;DHT22;61664;48.112;11.662;2023-09-19T10:05:16;25.50;63.10
31379;DHT22;61664;48.112;11.662;2023-09-19T10:07:48;25.40;60.40
31379;DHT22;61664;48.112;11.662;2023-09-19T10:10:30;25.30;62.40
31379;DHT22;61664;48.112;11.662;2023-09-19T10:13:12;25.30;65.70
31379;DHT22;61664;48.112;11.662;2023-09-19T10:15:51;25.30;63.20
31379;DHT22;61664;48.112;11.662;2023-09-19T10:18:23;25.20;61.50
31379;DHT22;61664;48.112;11.662;2023-09-19T10:20:52;25.40;62.50
31379;DHT22;61664;48.112;11.662;2023-09-19T10:23:20;25.40;61.50
31379;DHT22;61664;48.112;11.662;2023-09-19T10:25:52;25.50;62.00
31379;DHT22;61664;48.112;11.662;2023-09-19T10:28:20;25.60;62.10
31379;DHT22;61664;48.112;11.662;2023-09-19T10:30:55;25.70;61.50
31379;DHT22;61664;48.112;11.662;2023-09-19T10:33:25;25.80;61.10
31379;DHT22;61664;48.112;11.662;2023-09-19T10:35:53;25.90;60.60
31379;DHT22;61664;48.112;11.662;2023-09-19T10:38:24;26.00;60.80
31379;DHT22;61664;48.112;11.662;2023-09-19T10:40:54;26.10;59.90
31379;DHT22;61664;48.112;11.662;2023-09-19T10:43:32;26.10;59.70
31379;DHT22;61664;48.112;11.662;2023-09-19T10:46:07;26.10;58.40
31379;DHT22;61664;48.112;11.662;2023-09-19T10:48:38;26.10;60.40
31379;DHT22;61664;48.112;11.662;2023-09-19T10:51:15;26.10;60.90
31379;DHT22;61664;48.112;11.662;2023-09-19T10:53:55;26.20;59.50
31379;DHT22;61664;48.112;11.662;2023-09-19T10:56:32;26.20;56.70
31379;DHT22;61664;48.112;11.662;2023-09-19T10:59:14;26.10;59.30
31379;DHT22;61664;48.112;11.662;2023-09-19T11:04:31;25.80;59.40
31379;DHT22;61664;48.112;11.662;2023-09-19T11:07:11;25.70;58.30
31379;DHT22;61664;48.112;11.662;2023-09-19T11:09:54;25.60;57.80
31379;DHT22;61664;48.112;11.662;2023-09-19T11:15:00;25.40;60.60
31379;DHT22;61664;48.112;11.662;2023-09-19T11:17:32;25.30;60.80
31379;DHT22;61664;48.112;11.662;2023-09-19T11:30:37;25.30;61.10
31379;DHT22;61664;48.112;11.662;2023-09-19T11:36:34;25.30;61.00
31379;DHT22;61664;48.112;11.662;2023-09-19T11:39:03;25.30;60.90
31379;DHT22;61664;48.112;11.662;2023-09-19T11:41:39;25.20;61.60
31379;DHT22;61664;48.112;11.662;2023-09-19T11:49:29;25.30;60.80
31379;DHT22;61664;48.112;11.662;2023-09-19T11:52:04;25.30;61.30
31379;DHT22;61664;48.112;11.662;2023-09-19T11:54:32;25.30;59.70
31379;DHT22;61664;48.112;11.662;2023-09-19T11:57:00;25.40;61.60
31379;DHT22;61664;48.112;11.662;2023-09-19T11:59:31;25.40;60.30
31379;DHT22;61664;48.112;11.662;2023-09-19T12:02:04;25.40;59.80
31379;DHT22;61664;48.112;11.662;2023-09-19T12:04:42;25.40;57.90
31379;DHT22;61664;48.112;11.662;2023-09-19T12:07:15;25.30;57.80
31379;DHT22;61664;48.112;11.662;2023-09-19T12:09:45;25.30;60.00
31379;DHT22;61664;48.112;11.662;2023-09-19T12:12:29;25.20;60.00
31379;DHT22;61664;48.112;11.662;2023-09-19T12:14:57;25.20;58.70
31379;DHT22;61664;48.112;11.662;2023-09-19T12:17:41;25.20;59.20
31379;DHT22;61664;48.112;11.662;2023-09-19T12:20:13;25.20;57.50
31379;DHT22;61664;48.112;11.662;2023-09-19T12:22:41;25.20;59.30
31379;DHT22;61664;48.112;11.662;2023-09-19T12:25:10;25.10;59.30
31379;DHT22;61664;48.112;11.662;2023-09-19T12:27:46;25.10;59.80
31379;DHT22;61664;48.112;11.662;2023-09-19T12:30:16;25.10;58.00
31379;DHT22;61664;48.112;11.662;2023-09-19T12:32:53;25.10;59.60
31379;DHT22;61664;48.112;11.662;2023-09-19T12:35:29;25.00;59.50
31379;DHT22;61664;48.112;11.662;2023-09-19T12:38:02;25.00;58.00
31379;DHT22;61664;48.112;11.662;2023-09-19T12:40:30;25.00;60.00
31379;DHT22;61664;48.112;11.662;2023-09-19T12:43:00;25.00;59.90
31379;DHT22;61664;48.112;11.662;2023-09-19T12:45:31;25.10;60.00
31379;DHT22;61664;48.112;11.662;2023-09-19T12:48:20;25.10;62.50
31379;DHT22;61664;48.112;11.662;2023-09-19T12:51:09;25.10;59.70
31379;DHT22;61664;48.112;11.662;2023-09-19T12:53:44;25.10;58.50
31379;DHT22;61664;48.112;11.662;2023-09-19T12:56:15;25.20;60.40
31379;DHT22;61664;48.112;11.662;2023-09-19T12:58:57;25.20;59.90
31379;DHT22;61664;48.112;11.662;2023-09-19T13:01:29;25.20;58.10
31379;DHT22;61664;48.112;11.662;2023-09-19T13:04:13;25.20;58.90
31379;DHT22;61664;48.112;11.662;2023-09-19T13:06:47;25.20;56.10
31379;DHT22;61664;48.112;11.662;2023-09-19T13:09:20;25.20;60.30
31379;DHT22;61664;48.112;11.662;2023-09-19T13:11:48;25.20;60.00
31379;DHT22;61664;48.112;11.662;2023-09-19T13:14:25;25.30;62.60
31379;DHT22;61664;48.112;11.662;2023-09-19T13:19:46;25.40;58.60
31379;DHT22;61664;48.112;11.662;2023-09-19T13:22:39;25.50;58.00
31379;DHT22;61664;48.112;11.662;2023-09-19T13:25:18;25.50;57.60
31379;DHT22;61664;48.112;11.662;2023-09-19T13:27:51;25.60;58.80
31379;DHT22;61664;48.112;11.662;2023-09-19T13:30:25;25.60;59.20
31379;DHT22;61664;48.112;11.662;2023-09-19T13:33:05;25.70;60.20
31379;DHT22;61664;48.112;11.662;2023-09-19T13:35:37;25.70;58.60
31379;DHT22;61664;48.112;11.662;2023-09-19T13:38:06;25.80;59.90
31379;DHT22;61664;48.112;11.662;2023-09-19T13:40:39;25.80;60.00
31379;DHT22;61664;48.112;11.662;2023-09-19T13:43:08;25.80;60.30
31379;DHT22;61664;48.112;11.662;2023-09-19T13:45:36;25.90;60.50
31379;DHT22;61664;48.112;11.662;2023-09-19T13:48:04;25.90;59.40
31379;DHT22;61664;48.112;11.662;2023-09-19T13:50:31;26.00;59.40
31379;DHT22;61664;48.112;11.662;2023-09-19T13:52:58;26.00;59.60
31379;DHT22;61664;48.112;11.662;2023-09-19T13:55:27;26.10;59.50
31379;DHT22;61664;48.112;11.662;2023-09-19T13:57:54;26.10;59.40
31379;DHT22;61664;48.112;11.662;2023-09-19T14:00:22;26.20;58.80
31379;DHT22;61664;48.112;11.662;2023-09-19T14:02:50;26.30;58.50
31379;DHT22;61664;48.112;11.662;2023-09-19T14:05:18;26.40;58.70
31379;DHT22;61664;48.112;11.662;2023-09-19T14:07:47;26.40;58.30
31379;DHT22;61664;48.112;11.662;2023-09-19T14:10:14;26.50;58.20
31379;DHT22;61664;48.112;11.662;2023-09-19T14:12:44;26.60;58.80
31379;DHT22;61664;48.112;11.662;2023-09-19T14:15:12;26.70;57.40
31379;DHT22;61664;48.112;11.662;2023-09-19T14:17:39;26.90;60.20
31379;DHT22;61664;48.112;11.662;2023-09-19T14:20:11;27.10;60.70
31379;DHT22;61664;48.112;11.662;2023-09-19T14:22:38;27.20;59.90
31379;DHT22;61664;48.112;11.662;2023-09-19T14:25:06;27.30;59.70
31379;DHT22;61664;48.112;11.662;2023-09-19T14:27:33;27.50;59.80
31379;DHT22;61664;48.112;11.662;2023-09-19T14:30:00;27.70;59.40
31379;DHT22;61664;48.112;11.662;2023-09-19T14:32:26;27.70;58.00
31379;DHT22;61664;48.112;11.662;2023-09-19T14:34:53;27.80;57.20
31379;DHT22;61664;48.112;11.662;2023-09-19T14:37:20;27.90;57.10
31379;DHT22;61664;48.112;11.662;2023-09-19T14:39:50;27.90;56.90
31379;DHT22;61664;48.112;11.662;2023-09-19T14:42:17;27.90;57.10
31379;DHT22;61664;48.112;11.662;2023-09-19T14:44:45;27.90;55.00
31379;DHT22;61664;48.112;11.662;2023-09-19T14:47:14;27.90;55.60
31379;DHT22;61664;48.112;11.662;2023-09-19T14:49:41;27.90;56.20
31379;DHT22;61664;48.112;11.662;2023-09-19T14:52:10;27.70;55.90
31379;DHT22;61664;48.112;11.662;2023-09-19T14:54:39;27.70;56.10
31379;DHT22;61664;48.112;11.662;2023-09-19T14:57:08;27.60;56.40
31379;DHT22;61664;48.112;11.662;2023-09-19T14:59:35;27.60;56.70
31379;DHT22;61664;48.112;11.662;2023-09-19T15:02:05;27.60;57.00
31379;DHT22;61664;48.112;11.662;2023-09-19T15:04:33;27.70;59.00
31379;DHT22;61664;48.112;11.662;2023-09-19T15:07:01;27.80;58.50
31379;DHT22;61664;48.112;11.662;2023-09-19T15:09:29;27.90;58.20
31379;DHT22;61664;48.112;11.662;2023-09-19T15:11:58;28.00;57.00
31379;DHT22;61664;48.112;11.662;2023-09-19T15:14:25;28.00;57.70
31379;DHT22;61664;48.112;11.662;2023-09-19T15:16:52;28.10;57.30
31379;DHT22;61664;48.112;11.662;2023-09-19T15:19:19;28.20;56.10
31379;DHT22;61664;48.112;11.662;2023-09-19T15:21:46;28.20;55.70
31379;DHT22;61664;48.112;11.662;2023-09-19T15:24:13;28.20;55.70
31379;DHT22;61664;48.112;11.662;2023-09-19T15:26:41;28.20;55.90
31379;DHT22;61664;48.112;11.662;2023-09-19T15:29:10;28.20;55.60
31379;DHT22;61664;48.112;11.662;2023-09-19T15:31:37;28.20;55.00
31379;DHT22;61664;48.112;11.662;2023-09-19T15:34:05;28.20;54.90
31379;DHT22;61664;48.112;11.662;2023-09-19T15:36:36;28.10;55.00
31379;DHT22;61664;48.112;11.662;2023-09-19T15:39:05;28.00;54.80
31379;DHT22;61664;48.112;11.662;2023-09-19T15:41:36;28.00;53.70
31379;DHT22;61664;48.112;11.662;2023-09-19T15:44:13;27.80;53.40
31379;DHT22;61664;48.112;11.662;2023-09-19T15:46:42;27.60;52.10
31379;DHT22;61664;48.112;11.662;2023-09-19T15:49:11;27.50;54.40
31379;DHT22;61664;48.112;11.662;2023-09-19T15:51:38;27.40;54.70
31379;DHT22;61664;48.112;11.662;2023-09-19T15:54:08;27.20;54.30
31379;DHT22;61664;48.112;11.662;2023-09-19T15:56:37;27.10;54.50
31379;DHT22;61664;48.112;11.662;2023-09-19T15:59:04;26.90;55.00
31379;DHT22;61664;48.112;11.662;2023-09-19T16:01:31;26.90;55.20
31379;DHT22;61664;48.112;11.662;2023-09-19T16:03:58;26.70;55.50
31379;DHT22;61664;48.112;11.662;2023-09-19T16:06:27;26.60;55.00
31379;DHT22;61664;48.112;11.662;2023-09-19T16:08:57;26.50;55.20
31379;DHT22;61664;48.112;11.662;2023-09-19T16:11:26;26.40;55.30
31379;DHT22;61664;48.112;11.662;2023-09-19T16:13:55;26.30;55.10
31379;DHT22;61664;48.112;11.662;2023-09-19T16:16:26;26.20;54.80
31379;DHT22;61664;48.112;11.662;2023-09-19T16:18:58;26.10;54.90